sensor_id;sensor_type;location;lat;lon;timestamp;P1;durP1;ratioP1;P2;durP2;ratioP2
61015;SDS011;46902;52.920;6.536;2024-01-30T00:01:22;16.90;;;15.10;;
61015;SDS011;46902;52.920;6.536;2024-01-30T00:03:48;17.92;;;14.48;;
61015;SDS011;46902;52.920;6.536;2024-01-30T00:06:13;15.40;;;13.60;;
61015;SDS011;46902;52.920;6.536;2024-01-30T00:08:39;17.88;;;14.77;;
61015;SDS011;46902;52.920;6.536;2024-01-30T00:11:04;18.83;;;14.55;;
61015;SDS011;46902;52.920;6.536;2024-01-30T00:13:30;23.25;;;16.00;;
61015;SDS011;46902;52.920;6.536;2024-01-30T00:15:56;19.85;;;14.85;;
61015;SDS011;46902;52.920;6.536;2024-01-30T00:18:21;17.73;;;14.55;;
61015;SDS011;46902;52.920;6.536;2024-01-30T00:20:47;26.65;;;14.88;;
61015;SDS011;46902;52.920;6.536;2024-01-30T00:23:12;18.92;;;14.20;;
61015;SDS011;46902;52.920;6.536;2024-01-30T00:25:38;21.98;;;15.35;;
61015;SDS011;46902;52.920;6.536;2024-01-30T00:28:04;19.25;;;14.60;;
61015;SDS011;46902;52.920;6.536;2024-01-30T00:30:29;19.02;;;14.45;;
61015;SDS011;46902;52.920;6.536;2024-01-30T00:32:55;20.13;;;15.63;;
61015;SDS011;46902;52.920;6.536;2024-01-30T00:35:20;18.50;;;14.20;;
61015;SDS011;46902;52.920;6.536;2024-01-30T00:37:47;18.75;;;15.77;;
61015;SDS011;46902;52.920;6.536;2024-01-30T00:40:13;24.98;;;16.27;;
61015;SDS011;46902;52.920;6.536;2024-01-30T00:42:43;17.42;;;14.95;;
61015;SDS011;46902;52.920;6.536;2024-01-30T00:45:13;18.38;;;15.13;;
61015;SDS011;46902;52.920;6.536;2024-01-30T00:47:39;20.15;;;14.80;;
61015;SDS011;46902;52.920;6.536;2024-01-30T00:50:05;21.85;;;15.88;;
61015;SDS011;46902;52.920;6.536;2024-01-30T00:52:31;20.70;;;15.13;;
61015;SDS011;46902;52.920;6.536;2024-01-30T00:54:58;22.75;;;16.27;;
61015;SDS011;46902;52.920;6.536;2024-01-30T00:57:24;20.70;;;15.15;;
61015;SDS011;46902;52.920;6.536;2024-01-30T00:59:49;18.92;;;15.40;;
61015;SDS011;46902;52.920;6.536;2024-01-30T01:02:15;20.92;;;15.27;;
61015;SDS011;46902;52.920;6.536;2024-01-30T01:04:42;20.38;;;14.63;;
61015;SDS011;46902;52.920;6.536;2024-01-30T01:07:08;20.15;;;15.27;;
61015;SDS011;46902;52.920;6.536;2024-01-30T01:09:33;19.63;;;15.63;;
61015;SDS011;46902;52.920;6.536;2024-01-30T01:11:59;20.25;;;15.65;;
61015;SDS011;46902;52.920;6.536;2024-01-30T01:14:25;18.48;;;14.63;;
61015;SDS011;46902;52.920;6.536;2024-01-30T01:16:50;17.90;;;14.00;;
61015;SDS011;46902;52.920;6.536;2024-01-30T01:19:16;19.67;;;15.05;;
61015;SDS011;46902;52.920;6.536;2024-01-30T01:21:41;21.23;;;16.02;;
61015;SDS011;46902;52.920;6.536;2024-01-30T01:24:07;18.77;;;14.65;;
61015;SDS011;46902;52.920;6.536;2024-01-30T01:26:32;21.88;;;14.75;;
61015;SDS011;46902;52.920;6.536;2024-01-30T01:28:58;19.67;;;14.35;;
61015;SDS011;46902;52.920;6.536;2024-01-30T01:31:24;20.17;;;14.52;;
61015;SDS011;46902;52.920;6.536;2024-01-30T01:33:50;21.13;;;15.35;;
61015;SDS011;46902;52.920;6.536;2024-01-30T01:36:15;18.25;;;14.20;;
61015;SDS011;46902;52.920;6.536;2024-01-30T01:38:41;17.23;;;14.15;;
61015;SDS011;46902;52.920;6.536;2024-01-30T01:41:06;18.77;;;14.77;;
61015;SDS011;46902;52.920;6.536;2024-01-30T01:43:32;16.02;;;13.50;;
61015;SDS011;46902;52.920;6.536;2024-01-30T01:45:58;18.73;;;14.70;;
61015;SDS011;46902;52.920;6.536;2024-01-30T01:48:23;20.02;;;15.88;;
61015;SDS011;46902;52.920;6.536;2024-01-30T01:50:50;18.58;;;14.43;;
61015;SDS011;46902;52.920;6.536;2024-01-30T01:53:17;18.70;;;14.57;;
61015;SDS011;46902;52.920;6.536;2024-01-30T01:55:42;18.63;;;14.80;;
61015;SDS011;46902;52.920;6.536;2024-01-30T01:58:08;21.80;;;15.50;;
61015;SDS011;46902;52.920;6.536;2024-01-30T02:00:35;22.50;;;15.48;;
61015;SDS011;46902;52.920;6.536;2024-01-30T02:03:04;21.15;;;15.32;;
61015;SDS011;46902;52.920;6.536;2024-01-30T02:05:31;20.52;;;15.18;;
61015;SDS011;46902;52.920;6.536;2024-01-30T02:07:57;19.15;;;14.32;;
61015;SDS011;46902;52.920;6.536;2024-01-30T02:10:23;18.65;;;13.75;;
61015;SDS011;46902;52.920;6.536;2024-01-30T02:12:49;21.42;;;14.45;;
61015;SDS011;46902;52.920;6.536;2024-01-30T02:15:15;18.08;;;14.55;;
61015;SDS011;46902;52.920;6.536;2024-01-30T02:17:40;21.20;;;14.55;;
61015;SDS011;46902;52.920;6.536;2024-01-30T02:20:06;17.55;;;13.60;;
61015;SDS011;46902;52.920;6.536;2024-01-30T02:22:32;19.58;;;14.07;;
61015;SDS011;46902;52.920;6.536;2024-01-30T02:25:00;17.85;;;13.57;;
61015;SDS011;46902;52.920;6.536;2024-01-30T02:27:25;18.65;;;14.27;;
61015;SDS011;46902;52.920;6.536;2024-01-30T02:29:51;19.45;;;13.68;;
61015;SDS011;46902;52.920;6.536;2024-01-30T02:32:17;22.40;;;14.57;;
61015;SDS011;46902;52.920;6.536;2024-01-30T02:34:42;17.55;;;12.85;;
61015;SDS011;46902;52.920;6.536;2024-01-30T02:37:08;18.55;;;15.00;;
61015;SDS011;46902;52.920;6.536;2024-01-30T02:39:33;19.58;;;13.25;;
61015;SDS011;46902;52.920;6.536;2024-01-30T02:41:59;18.15;;;14.05;;
61015;SDS011;46902;52.920;6.536;2024-01-30T02:44:25;16.98;;;13.63;;
61015;SDS011;46902;52.920;6.536;2024-01-30T02:46:50;21.40;;;14.50;;
61015;SDS011;46902;52.920;6.536;2024-01-30T02:49:16;18.42;;;13.68;;
61015;SDS011;46902;52.920;6.536;2024-01-30T02:51:41;17.35;;;13.93;;
61015;SDS011;46902;52.920;6.536;2024-01-30T02:54:07;19.38;;;13.75;;
61015;SDS011;46902;52.920;6.536;2024-01-30T02:56:32;18.83;;;13.70;;
61015;SDS011;46902;52.920;6.536;2024-01-30T02:58:58;18.77;;;13.95;;
61015;SDS011;46902;52.920;6.536;2024-01-30T03:01:24;17.33;;;13.63;;
61015;SDS011;46902;52.920;6.536;2024-01-30T03:03:49;17.38;;;14.20;;
61015;SDS011;46902;52.920;6.536;2024-01-30T03:06:15;18.25;;;14.27;;
61015;SDS011;46902;52.920;6.536;2024-01-30T03:08:42;16.20;;;13.23;;
61015;SDS011;46902;52.920;6.536;2024-01-30T03:11:08;17.55;;;14.20;;
61015;SDS011;46902;52.920;6.536;2024-01-30T03:13:33;20.27;;;14.30;;
61015;SDS011;46902;52.920;6.536;2024-01-30T03:15:59;20.42;;;14.63;;
61015;SDS011;46902;52.920;6.536;2024-01-30T03:18:24;18.25;;;14.23;;
61015;SDS011;46902;52.920;6.536;2024-01-30T03:20:50;18.10;;;13.73;;
61015;SDS011;46902;52.920;6.536;2024-01-30T03:23:16;22.25;;;14.60;;
61015;SDS011;46902;52.920;6.536;2024-01-30T03:25:41;18.40;;;13.45;;
61015;SDS011;46902;52.920;6.536;2024-01-30T03:28:07;16.48;;;13.98;;
61015;SDS011;46902;52.920;6.536;2024-01-30T03:30:34;18.05;;;14.05;;
61015;SDS011;46902;52.920;6.536;2024-01-30T03:32:59;17.52;;;14.15;;
61015;SDS011;46902;52.920;6.536;2024-01-30T03:35:25;17.83;;;14.00;;
61015;SDS011;46902;52.920;6.536;2024-01-30T03:37:50;17.05;;;13.70;;
61015;SDS011;46902;52.920;6.536;2024-01-30T03:40:16;18.38;;;13.10;;
61015;SDS011;46902;52.920;6.536;2024-01-30T03:42:41;20.05;;;14.48;;
61015;SDS011;46902;52.920;6.536;2024-01-30T03:45:07;17.10;;;13.30;;
61015;SDS011;46902;52.920;6.536;2024-01-30T03:47:33;16.10;;;13.10;;
61015;SDS011;46902;52.920;6.536;2024-01-30T03:49:59;19.33;;;13.98;;
61015;SDS011;46902;52.920;6.536;2024-01-30T03:52:24;18.88;;;13.98;;
61015;SDS011;46902;52.920;6.536;2024-01-30T03:54:51;19.67;;;14.48;;
61015;SDS011;46902;52.920;6.536;2024-01-30T03:57:16;19.02;;;13.05;;
61015;SDS011;46902;52.920;6.536;2024-01-30T03:59:42;20.40;;;13.82;;
61015;SDS011;46902;52.920;6.536;2024-01-30T04:02:08;15.75;;;12.55;;
61015;SDS011;46902;52.920;6.536;2024-01-30T04:04:34;15.88;;;13.07;;
61015;SDS011;46902;52.920;6.536;2024-01-30T04:07:00;18.38;;;13.20;;
61015;SDS011;46902;52.920;6.536;2024-01-30T04:09:25;16.15;;;12.70;;
61015;SDS011;46902;52.920;6.536;2024-01-30T04:11:53;15.98;;;13.15;;
61015;SDS011;46902;52.920;6.536;2024-01-30T04:14:19;19.58;;;13.30;;
61015;SDS011;46902;52.920;6.536;2024-01-30T04:16:44;18.38;;;12.85;;
61015;SDS011;46902;52.920;6.536;2024-01-30T04:19:10;15.60;;;13.57;;
61015;SDS011;46902;52.920;6.536;2024-01-30T04:21:36;19.80;;;12.90;;
61015;SDS011;46902;52.920;6.536;2024-01-30T04:24:01;21.42;;;13.45;;
61015;SDS011;46902;52.920;6.536;2024-01-30T04:26:27;16.40;;;13.57;;
61015;SDS011;46902;52.920;6.536;2024-01-30T04:28:52;16.67;;;12.85;;
61015;SDS011;46902;52.920;6.536;2024-01-30T04:31:18;17.35;;;13.45;;
61015;SDS011;46902;52.920;6.536;2024-01-30T04:33:44;18.17;;;12.57;;
61015;SDS011;46902;52.920;6.536;2024-01-30T04:36:09;19.02;;;12.30;;
61015;SDS011;46902;52.920;6.536;2024-01-30T04:38:35;14.93;;;12.82;;
61015;SDS011;46902;52.920;6.536;2024-01-30T04:41:01;16.65;;;12.40;;
61015;SDS011;46902;52.920;6.536;2024-01-30T04:43:26;16.83;;;12.98;;
61015;SDS011;46902;52.920;6.536;2024-01-30T04:45:52;18.35;;;12.73;;
61015;SDS011;46902;52.920;6.536;2024-01-30T04:48:18;16.05;;;12.95;;
61015;SDS011;46902;52.920;6.536;2024-01-30T04:50:43;16.55;;;12.00;;
61015;SDS011;46902;52.920;6.536;2024-01-30T04:53:09;17.50;;;12.50;;
61015;SDS011;46902;52.920;6.536;2024-01-30T04:55:35;17.65;;;11.88;;
61015;SDS011;46902;52.920;6.536;2024-01-30T04:58:01;15.57;;;13.18;;
61015;SDS011;46902;52.920;6.536;2024-01-30T05:00:27;16.90;;;12.63;;
61015;SDS011;46902;52.920;6.536;2024-01-30T05:02:54;15.35;;;12.23;;
61015;SDS011;46902;52.920;6.536;2024-01-30T05:05:21;17.83;;;11.85;;
61015;SDS011;46902;52.920;6.536;2024-01-30T05:07:47;16.35;;;11.95;;
61015;SDS011;46902;52.920;6.536;2024-01-30T05:10:12;16.63;;;12.07;;
61015;SDS011;46902;52.920;6.536;2024-01-30T05:12:39;14.80;;;12.05;;
61015;SDS011;46902;52.920;6.536;2024-01-30T05:15:04;19.08;;;12.45;;
61015;SDS011;46902;52.920;6.536;2024-01-30T05:17:30;15.00;;;11.52;;
61015;SDS011;46902;52.920;6.536;2024-01-30T05:19:56;15.27;;;12.15;;
61015;SDS011;46902;52.920;6.536;2024-01-30T05:22:21;15.20;;;11.70;;
61015;SDS011;46902;52.920;6.536;2024-01-30T05:24:47;16.20;;;11.77;;
61015;SDS011;46902;52.920;6.536;2024-01-30T05:27:12;14.13;;;11.68;;
61015;SDS011;46902;52.920;6.536;2024-01-30T05:29:39;19.20;;;12.13;;
61015;SDS011;46902;52.920;6.536;2024-01-30T05:32:05;16.08;;;12.32;;
61015;SDS011;46902;52.920;6.536;2024-01-30T05:34:31;20.08;;;12.93;;
61015;SDS011;46902;52.920;6.536;2024-01-30T05:36:57;16.67;;;12.00;;
61015;SDS011;46902;52.920;6.536;2024-01-30T05:39:22;15.48;;;11.93;;
61015;SDS011;46902;52.920;6.536;2024-01-30T05:41:48;17.85;;;12.15;;
61015;SDS011;46902;52.920;6.536;2024-01-30T05:44:14;17.38;;;12.05;;
61015;SDS011;46902;52.920;6.536;2024-01-30T05:46:39;14.00;;;11.38;;
61015;SDS011;46902;52.920;6.536;2024-01-30T05:49:05;13.35;;;11.13;;
61015;SDS011;46902;52.920;6.536;2024-01-30T05:51:31;18.95;;;12.07;;
61015;SDS011;46902;52.920;6.536;2024-01-30T05:53:56;18.58;;;12.55;;
61015;SDS011;46902;52.920;6.536;2024-01-30T05:56:22;18.63;;;12.95;;
61015;SDS011;46902;52.920;6.536;2024-01-30T05:58:47;16.15;;;12.23;;
61015;SDS011;46902;52.920;6.536;2024-01-30T06:01:15;15.05;;;11.75;;
61015;SDS011;46902;52.920;6.536;2024-01-30T06:03:41;16.85;;;11.77;;
61015;SDS011;46902;52.920;6.536;2024-01-30T06:06:08;14.57;;;11.77;;
61015;SDS011;46902;52.920;6.536;2024-01-30T06:08:33;16.02;;;12.75;;
61015;SDS011;46902;52.920;6.536;2024-01-30T06:10:59;17.00;;;11.90;;
61015;SDS011;46902;52.920;6.536;2024-01-30T06:13:25;15.38;;;11.05;;
61015;SDS011;46902;52.920;6.536;2024-01-30T06:15:51;13.93;;;11.75;;
61015;SDS011;46902;52.920;6.536;2024-01-30T06:18:17;18.88;;;12.00;;
61015;SDS011;46902;52.920;6.536;2024-01-30T06:20:43;15.25;;;11.45;;
61015;SDS011;46902;52.920;6.536;2024-01-30T06:23:08;15.95;;;12.02;;
61015;SDS011;46902;52.920;6.536;2024-01-30T06:25:34;15.63;;;12.10;;
61015;SDS011;46902;52.920;6.536;2024-01-30T06:28:00;18.50;;;12.13;;
61015;SDS011;46902;52.920;6.536;2024-01-30T06:30:25;19.08;;;12.18;;
61015;SDS011;46902;52.920;6.536;2024-01-30T06:32:51;16.33;;;11.73;;
61015;SDS011;46902;52.920;6.536;2024-01-30T06:35:16;15.82;;;12.10;;
61015;SDS011;46902;52.920;6.536;2024-01-30T06:37:42;16.02;;;12.20;;
61015;SDS011;46902;52.920;6.536;2024-01-30T06:40:08;14.63;;;11.93;;
61015;SDS011;46902;52.920;6.536;2024-01-30T06:42:34;15.75;;;11.75;;
61015;SDS011;46902;52.920;6.536;2024-01-30T06:45:00;14.52;;;11.40;;
61015;SDS011;46902;52.920;6.536;2024-01-30T06:47:25;16.15;;;12.07;;
61015;SDS011;46902;52.920;6.536;2024-01-30T06:49:51;14.65;;;11.02;;
61015;SDS011;46902;52.920;6.536;2024-01-30T06:52:16;16.20;;;11.40;;
61015;SDS011;46902;52.920;6.536;2024-01-30T06:54:42;13.98;;;10.82;;
61015;SDS011;46902;52.920;6.536;2024-01-30T06:57:08;15.10;;;11.05;;
61015;SDS011;46902;52.920;6.536;2024-01-30T06:59:37;15.90;;;11.05;;
61015;SDS011;46902;52.920;6.536;2024-01-30T07:02:08;15.45;;;11.68;;
61015;SDS011;46902;52.920;6.536;2024-01-30T07:04:37;15.90;;;11.57;;
61015;SDS011;46902;52.920;6.536;2024-01-30T07:07:03;14.15;;;11.40;;
61015;SDS011;46902;52.920;6.536;2024-01-30T07:09:30;15.95;;;11.35;;
61015;SDS011;46902;52.920;6.536;2024-01-30T07:11:56;16.27;;;10.82;;
61015;SDS011;46902;52.920;6.536;2024-01-30T07:14:23;16.80;;;11.18;;
61015;SDS011;46902;52.920;6.536;2024-01-30T07:16:49;14.90;;;11.50;;
61015;SDS011;46902;52.920;6.536;2024-01-30T07:19:15;18.88;;;11.57;;
61015;SDS011;46902;52.920;6.536;2024-01-30T07:21:41;19.35;;;11.55;;
61015;SDS011;46902;52.920;6.536;2024-01-30T07:24:06;16.52;;;11.60;;
61015;SDS011;46902;52.920;6.536;2024-01-30T07:26:32;17.80;;;12.15;;
61015;SDS011;46902;52.920;6.536;2024-01-30T07:28:57;15.57;;;11.20;;
61015;SDS011;46902;52.920;6.536;2024-01-30T07:31:23;17.92;;;12.00;;
61015;SDS011;46902;52.920;6.536;2024-01-30T07:33:49;13.88;;;11.07;;
61015;SDS011;46902;52.920;6.536;2024-01-30T07:36:14;14.65;;;11.48;;
61015;SDS011;46902;52.920;6.536;2024-01-30T07:38:40;15.40;;;11.25;;
61015;SDS011;46902;52.920;6.536;2024-01-30T07:41:05;15.68;;;11.60;;
61015;SDS011;46902;52.920;6.536;2024-01-30T07:43:31;14.27;;;10.90;;
61015;SDS011;46902;52.920;6.536;2024-01-30T07:45:57;15.07;;;11.38;;
61015;SDS011;46902;52.920;6.536;2024-01-30T07:48:22;16.50;;;11.23;;
61015;SDS011;46902;52.920;6.536;2024-01-30T07:50:48;14.57;;;11.07;;
61015;SDS011;46902;52.920;6.536;2024-01-30T07:53:13;14.20;;;10.75;;
61015;SDS011;46902;52.920;6.536;2024-01-30T07:55:39;13.52;;;11.30;;
61015;SDS011;46902;52.920;6.536;2024-01-30T07:58:04;14.25;;;10.50;;
61015;SDS011;46902;52.920;6.536;2024-01-30T08:00:30;14.07;;;11.35;;
61015;SDS011;46902;52.920;6.536;2024-01-30T08:02:56;14.10;;;10.40;;
61015;SDS011;46902;52.920;6.536;2024-01-30T08:05:22;12.75;;;10.48;;
61015;SDS011;46902;52.920;6.536;2024-01-30T08:07:48;14.00;;;10.75;;
61015;SDS011;46902;52.920;6.536;2024-01-30T08:10:14;14.82;;;11.38;;
61015;SDS011;46902;52.920;6.536;2024-01-30T08:12:40;15.20;;;11.48;;
61015;SDS011;46902;52.920;6.536;2024-01-30T08:15:06;20.00;;;11.02;;
61015;SDS011;46902;52.920;6.536;2024-01-30T08:17:33;17.45;;;11.05;;
61015;SDS011;46902;52.920;6.536;2024-01-30T08:19:59;16.50;;;10.57;;
61015;SDS011;46902;52.920;6.536;2024-01-30T08:22:24;16.35;;;10.70;;
61015;SDS011;46902;52.920;6.536;2024-01-30T08:24:50;15.20;;;10.65;;
61015;SDS011;46902;52.920;6.536;2024-01-30T08:27:16;15.93;;;11.18;;
61015;SDS011;46902;52.920;6.536;2024-01-30T08:29:42;17.08;;;10.32;;
61015;SDS011;46902;52.920;6.536;2024-01-30T08:32:08;14.90;;;10.65;;
61015;SDS011;46902;52.920;6.536;2024-01-30T08:34:33;13.07;;;9.98;;
61015;SDS011;46902;52.920;6.536;2024-01-30T08:36:59;21.98;;;10.95;;
61015;SDS011;46902;52.920;6.536;2024-01-30T08:39:25;16.08;;;10.52;;
61015;SDS011;46902;52.920;6.536;2024-01-30T08:41:50;13.55;;;9.52;;
61015;SDS011;46902;52.920;6.536;2024-01-30T08:44:16;16.38;;;10.57;;
61015;SDS011;46902;52.920;6.536;2024-01-30T08:46:42;15.10;;;10.32;;
61015;SDS011;46902;52.920;6.536;2024-01-30T08:49:10;13.43;;;9.30;;
61015;SDS011;46902;52.920;6.536;2024-01-30T08:51:38;16.55;;;10.40;;
61015;SDS011;46902;52.920;6.536;2024-01-30T08:54:04;13.55;;;9.80;;
61015;SDS011;46902;52.920;6.536;2024-01-30T08:56:29;14.13;;;10.43;;
61015;SDS011;46902;52.920;6.536;2024-01-30T08:58:55;15.20;;;9.95;;
61015;SDS011;46902;52.920;6.536;2024-01-30T09:01:20;17.88;;;11.20;;
61015;SDS011;46902;52.920;6.536;2024-01-30T09:03:46;13.55;;;9.77;;
61015;SDS011;46902;52.920;6.536;2024-01-30T09:06:12;14.20;;;10.57;;
61015;SDS011;46902;52.920;6.536;2024-01-30T09:08:38;13.88;;;10.02;;
61015;SDS011;46902;52.920;6.536;2024-01-30T09:11:10;11.85;;;9.65;;
61015;SDS011;46902;52.920;6.536;2024-01-30T09:13:39;18.15;;;10.88;;
61015;SDS011;46902;52.920;6.536;2024-01-30T09:16:05;14.32;;;9.90;;
61015;SDS011;46902;52.920;6.536;2024-01-30T09:18:32;19.70;;;10.35;;
61015;SDS011;46902;52.920;6.536;2024-01-30T09:20:57;15.73;;;10.20;;
61015;SDS011;46902;52.920;6.536;2024-01-30T09:23:23;13.73;;;10.05;;
61015;SDS011;46902;52.920;6.536;2024-01-30T09:25:49;14.82;;;10.60;;
61015;SDS011;46902;52.920;6.536;2024-01-30T09:28:17;13.13;;;9.50;;
61015;SDS011;46902;52.920;6.536;2024-01-30T09:30:42;14.77;;;9.65;;
61015;SDS011;46902;52.920;6.536;2024-01-30T09:33:08;12.18;;;9.25;;
61015;SDS011;46902;52.920;6.536;2024-01-30T09:35:34;13.85;;;9.75;;
61015;SDS011;46902;52.920;6.536;2024-01-30T09:37:59;15.02;;;9.63;;
61015;SDS011;46902;52.920;6.536;2024-01-30T09:40:25;17.65;;;10.32;;
61015;SDS011;46902;52.920;6.536;2024-01-30T09:42:51;12.95;;;9.88;;
61015;SDS011;46902;52.920;6.536;2024-01-30T09:45:20;15.98;;;9.60;;
61015;SDS011;46902;52.920;6.536;2024-01-30T09:47:49;13.55;;;9.48;;
61015;SDS011;46902;52.920;6.536;2024-01-30T09:50:15;16.00;;;9.65;;
61015;SDS011;46902;52.920;6.536;2024-01-30T09:52:44;12.70;;;9.55;;
61015;SDS011;46902;52.920;6.536;2024-01-30T09:55:11;12.73;;;9.25;;
61015;SDS011;46902;52.920;6.536;2024-01-30T09:57:37;13.10;;;9.18;;
61015;SDS011;46902;52.920;6.536;2024-01-30T10:00:03;18.00;;;10.07;;
61015;SDS011;46902;52.920;6.536;2024-01-30T10:02:33;17.33;;;9.55;;
61015;SDS011;46902;52.920;6.536;2024-01-30T10:04:59;11.90;;;9.07;;
61015;SDS011;46902;52.920;6.536;2024-01-30T10:07:25;15.02;;;10.20;;
61015;SDS011;46902;52.920;6.536;2024-01-30T10:09:52;15.65;;;9.43;;
61015;SDS011;46902;52.920;6.536;2024-01-30T10:12:18;12.95;;;8.95;;
61015;SDS011;46902;52.920;6.536;2024-01-30T10:14:44;12.38;;;9.00;;
61015;SDS011;46902;52.920;6.536;2024-01-30T10:17:10;14.07;;;9.30;;
61015;SDS011;46902;52.920;6.536;2024-01-30T10:19:37;13.57;;;9.32;;
61015;SDS011;46902;52.920;6.536;2024-01-30T10:22:03;14.90;;;8.98;;
61015;SDS011;46902;52.920;6.536;2024-01-30T10:24:29;15.90;;;9.55;;
61015;SDS011;46902;52.920;6.536;2024-01-30T10:26:56;13.93;;;9.50;;
61015;SDS011;46902;52.920;6.536;2024-01-30T10:29:22;14.05;;;9.15;;
61015;SDS011;46902;52.920;6.536;2024-01-30T10:32:04;14.88;;;9.85;;
61015;SDS011;46902;52.920;6.536;2024-01-30T10:34:31;13.43;;;9.07;;
61015;SDS011;46902;52.920;6.536;2024-01-30T10:39:32;15.77;;;9.63;;
61015;SDS011;46902;52.920;6.536;2024-01-30T10:42:04;18.88;;;9.85;;
61015;SDS011;46902;52.920;6.536;2024-01-30T10:44:34;17.15;;;10.07;;
61015;SDS011;46902;52.920;6.536;2024-01-30T10:47:06;15.73;;;10.30;;
61015;SDS011;46902;52.920;6.536;2024-01-30T10:49:36;21.10;;;10.43;;
61015;SDS011;46902;52.920;6.536;2024-01-30T10:52:03;15.73;;;9.75;;
61015;SDS011;46902;52.920;6.536;2024-01-30T10:54:30;18.80;;;10.02;;
61015;SDS011;46902;52.920;6.536;2024-01-30T10:56:59;23.92;;;10.35;;
61015;SDS011;46902;52.920;6.536;2024-01-30T10:59:26;14.60;;;9.85;;
61015;SDS011;46902;52.920;6.536;2024-01-30T11:01:53;18.50;;;10.52;;
61015;SDS011;46902;52.920;6.536;2024-01-30T11:04:19;15.55;;;10.10;;
61015;SDS011;46902;52.920;6.536;2024-01-30T11:06:45;18.73;;;11.48;;
61015;SDS011;46902;52.920;6.536;2024-01-30T11:09:16;24.25;;;10.70;;
61015;SDS011;46902;52.920;6.536;2024-01-30T11:11:49;15.25;;;10.48;;
61015;SDS011;46902;52.920;6.536;2024-01-30T11:14:29;21.10;;;10.65;;
61015;SDS011;46902;52.920;6.536;2024-01-30T11:16:58;19.33;;;11.20;;
61015;SDS011;46902;52.920;6.536;2024-01-30T11:19:25;18.10;;;10.50;;
61015;SDS011;46902;52.920;6.536;2024-01-30T11:21:52;18.25;;;11.00;;
61015;SDS011;46902;52.920;6.536;2024-01-30T11:24:19;21.10;;;10.90;;
61015;SDS011;46902;52.920;6.536;2024-01-30T11:26:47;16.00;;;11.23;;
61015;SDS011;46902;52.920;6.536;2024-01-30T11:29:29;19.65;;;10.88;;
61015;SDS011;46902;52.920;6.536;2024-01-30T11:31:55;20.45;;;11.52;;
61015;SDS011;46902;52.920;6.536;2024-01-30T11:34:22;19.50;;;11.73;;
61015;SDS011;46902;52.920;6.536;2024-01-30T11:36:51;21.83;;;11.23;;
61015;SDS011;46902;52.920;6.536;2024-01-30T11:39:20;20.88;;;11.60;;
61015;SDS011;46902;52.920;6.536;2024-01-30T11:41:47;20.80;;;11.65;;
61015;SDS011;46902;52.920;6.536;2024-01-30T11:44:15;16.77;;;11.23;;
61015;SDS011;46902;52.920;6.536;2024-01-30T11:46:41;19.02;;;10.88;;
61015;SDS011;46902;52.920;6.536;2024-01-30T11:49:07;16.83;;;11.50;;
61015;SDS011;46902;52.920;6.536;2024-01-30T11:51:32;17.25;;;11.20;;
61015;SDS011;46902;52.920;6.536;2024-01-30T11:53:58;18.88;;;11.57;;
61015;SDS011;46902;52.920;6.536;2024-01-30T11:56:24;17.13;;;11.75;;
61015;SDS011;46902;52.920;6.536;2024-01-30T11:58:50;20.77;;;11.65;;
61015;SDS011;46902;52.920;6.536;2024-01-30T12:01:17;16.50;;;11.18;;
61015;SDS011;46902;52.920;6.536;2024-01-30T12:03:43;16.85;;;11.15;;
61015;SDS011;46902;52.920;6.536;2024-01-30T12:06:15;15.88;;;11.00;;
61015;SDS011;46902;52.920;6.536;2024-01-30T12:08:41;19.90;;;13.00;;
61015;SDS011;46902;52.920;6.536;2024-01-30T12:11:07;21.67;;;11.23;;
61015;SDS011;46902;52.920;6.536;2024-01-30T12:13:33;23.20;;;10.43;;
61015;SDS011;46902;52.920;6.536;2024-01-30T12:16:02;23.50;;;8.80;;
61015;SDS011;46902;52.920;6.536;2024-01-30T12:18:28;22.23;;;9.25;;
61015;SDS011;46902;52.920;6.536;2024-01-30T12:21:00;21.70;;;7.65;;
61015;SDS011;46902;52.920;6.536;2024-01-30T12:23:26;21.38;;;7.47;;
61015;SDS011;46902;52.920;6.536;2024-01-30T12:25:53;14.73;;;6.38;;
61015;SDS011;46902;52.920;6.536;2024-01-30T12:28:19;11.57;;;5.22;;
61015;SDS011;46902;52.920;6.536;2024-01-30T12:30:45;12.00;;;5.13;;
61015;SDS011;46902;52.920;6.536;2024-01-30T12:33:15;15.02;;;4.35;;
61015;SDS011;46902;52.920;6.536;2024-01-30T12:35:46;9.95;;;3.60;;
61015;SDS011;46902;52.920;6.536;2024-01-30T12:38:15;8.20;;;2.80;;
61015;SDS011;46902;52.920;6.536;2024-01-30T12:40:41;7.72;;;2.13;;
61015;SDS011;46902;52.920;6.536;2024-01-30T12:43:06;4.90;;;1.40;;
61015;SDS011;46902;52.920;6.536;2024-01-30T12:45:32;3.20;;;1.15;;
61015;SDS011;46902;52.920;6.536;2024-01-30T12:47:57;2.83;;;1.30;;
61015;SDS011;46902;52.920;6.536;2024-01-30T12:50:23;5.00;;;1.45;;
61015;SDS011;46902;52.920;6.536;2024-01-30T12:52:49;4.10;;;1.40;;
61015;SDS011;46902;52.920;6.536;2024-01-30T12:55:14;4.68;;;1.33;;
61015;SDS011;46902;52.920;6.536;2024-01-30T12:57:40;4.57;;;1.10;;
61015;SDS011;46902;52.920;6.536;2024-01-30T13:00:06;3.22;;;1.10;;
61015;SDS011;46902;52.920;6.536;2024-01-30T13:02:35;4.70;;;1.30;;
61015;SDS011;46902;52.920;6.536;2024-01-30T13:05:02;4.78;;;1.35;;
61015;SDS011;46902;52.920;6.536;2024-01-30T13:07:29;4.55;;;1.00;;
61015;SDS011;46902;52.920;6.536;2024-01-30T13:09:54;6.65;;;1.45;;
61015;SDS011;46902;52.920;6.536;2024-01-30T13:12:20;4.13;;;1.08;;
61015;SDS011;46902;52.920;6.536;2024-01-30T13:14:45;2.28;;;0.90;;
61015;SDS011;46902;52.920;6.536;2024-01-30T13:17:11;5.88;;;1.00;;
61015;SDS011;46902;52.920;6.536;2024-01-30T13:19:37;3.72;;;0.90;;
61015;SDS011;46902;52.920;6.536;2024-01-30T13:22:02;5.85;;;1.50;;
61015;SDS011;46902;52.920;6.536;2024-01-30T13:24:28;5.53;;;1.02;;
61015;SDS011;46902;52.920;6.536;2024-01-30T13:26:54;2.15;;;0.90;;
61015;SDS011;46902;52.920;6.536;2024-01-30T13:29:19;5.80;;;1.20;;
61015;SDS011;46902;52.920;6.536;2024-01-30T13:31:45;4.55;;;1.20;;
61015;SDS011;46902;52.920;6.536;2024-01-30T13:34:11;6.40;;;1.20;;
61015;SDS011;46902;52.920;6.536;2024-01-30T13:36:38;2.40;;;0.77;;
61015;SDS011;46902;52.920;6.536;2024-01-30T13:39:04;4.55;;;1.30;;
61015;SDS011;46902;52.920;6.536;2024-01-30T13:41:35;4.72;;;1.30;;
61015;SDS011;46902;52.920;6.536;2024-01-30T13:44:01;2.90;;;1.23;;
61015;SDS011;46902;52.920;6.536;2024-01-30T13:46:28;3.10;;;0.80;;
61015;SDS011;46902;52.920;6.536;2024-01-30T13:48:54;5.05;;;0.98;;
61015;SDS011;46902;52.920;6.536;2024-01-30T13:51:20;6.30;;;1.40;;
61015;SDS011;46902;52.920;6.536;2024-01-30T13:53:46;4.13;;;1.10;;
61015;SDS011;46902;52.920;6.536;2024-01-30T13:56:11;5.03;;;1.38;;
61015;SDS011;46902;52.920;6.536;2024-01-30T13:58:37;5.72;;;1.40;;
61015;SDS011;46902;52.920;6.536;2024-01-30T14:01:02;6.55;;;2.45;;
61015;SDS011;46902;52.920;6.536;2024-01-30T14:03:28;8.18;;;3.05;;
61015;SDS011;46902;52.920;6.536;2024-01-30T14:05:54;5.57;;;2.83;;
61015;SDS011;46902;52.920;6.536;2024-01-30T14:08:19;7.30;;;2.72;;
61015;SDS011;46902;52.920;6.536;2024-01-30T14:10:48;5.65;;;2.40;;
61015;SDS011;46902;52.920;6.536;2024-01-30T14:13:14;7.32;;;2.40;;
61015;SDS011;46902;52.920;6.536;2024-01-30T14:15:40;7.75;;;2.30;;
61015;SDS011;46902;52.920;6.536;2024-01-30T14:18:05;5.30;;;1.95;;
61015;SDS011;46902;52.920;6.536;2024-01-30T14:20:33;6.47;;;1.92;;
61015;SDS011;46902;52.920;6.536;2024-01-30T14:22:59;5.72;;;1.55;;